sensor_id;sensor_type;location;lat;lon;timestamp;pressure;altitude;pressure_sealevel;temperature;humidity
43770;BME280;6597;52.218;9.882;2022-11-15T00:00:09;100375.81;;;6.62;100.00
43770;BME280;6597;52.218;9.882;2022-11-15T00:02:54;100375.56;;;6.71;100.00
43770;BME280;6597;52.218;9.882;2022-11-15T00:05:41;100374.59;;;6.75;100.00
43770;BME280;6597;52.218;9.882;2022-11-15T00:08:29;100367.28;;;6.89;100.00
43770;BME280;6597;52.218;9.882;2022-11-15T00:11:14;100371.19;;;7.05;100.00
43770;BME280;6597;52.218;9.882;2022-11-15T00:13:59;100374.31;;;7.20;100.00
43770;BME280;6597;52.218;9.882;2022-11-15T00:16:46;100370.41;;;7.34;100.00
43770;BME280;6597;52.218;9.882;2022-11-15T00:19:31;100363.81;;;7.52;100.00
43770;BME280;6597;52.218;9.882;2022-11-15T00:22:18;100362.31;;;7.73;100.00
43770;BME280;6597;52.218;9.882;2022-11-15T00:25:04;100346.19;;;7.88;100.00
43770;BME280;6597;52.218;9.882;2022-11-15T00:27:49;100352.84;;;7.98;100.00
43770;BME280;6597;52.218;9.882;2022-11-15T00:30:35;100342.78;;;8.14;100.00
43770;BME280;6597;52.218;9.882;2022-11-15T00:33:20;100336.25;;;8.27;100.00
43770;BME280;6597;52.218;9.882;2022-11-15T00:36:07;100315.25;;;8.29;100.00
43770;BME280;6597;52.218;9.882;2022-11-15T00:38:55;100340.13;;;8.42;100.00
43770;BME280;6597;52.218;9.882;2022-11-15T00:41:40;100339.91;;;8.50;100.00
43770;BME280;6597;52.218;9.882;2022-11-15T00:44:25;100338.94;;;8.52;100.00
43770;BME280;6597;52.218;9.882;2022-11-15T00:47:11;100339.84;;;8.51;100.00
43770;BME280;6597;52.218;9.882;2022-11-15T00:49:56;100348.59;;;8.50;100.00
43770;BME280;6597;52.218;9.882;2022-11-15T00:52:42;100341.72;;;8.48;100.00
43770;BME280;6597;52.218;9.882;2022-11-15T00:55:28;100345.03;;;8.53;100.00
43770;BME280;6597;52.218;9.882;2022-11-15T00:58:13;100333.41;;;8.61;100.00
43770;BME280;6597;52.218;9.882;2022-11-15T01:01:05;100329.66;;;8.68;100.00
43770;BME280;6597;52.218;9.882;2022-11-15T01:03:50;100333.06;;;8.70;100.00
43770;BME280;6597;52.218;9.882;2022-11-15T01:06:35;100332.84;;;8.77;100.00
43770;BME280;6597;52.218;9.882;2022-11-15T01:09:21;100328.53;;;9.00;100.00
43770;BME280;6597;52.218;9.882;2022-11-15T01:12:07;100321.47;;;9.27;100.00
43770;BME280;6597;52.218;9.882;2022-11-15T01:14:52;100310.03;;;9.53;100.00
43770;BME280;6597;52.218;9.882;2022-11-15T01:17:38;100309.25;;;9.73;100.00
43770;BME280;6597;52.218;9.882;2022-11-15T01:20:23;100305.13;;;9.89;100.00
43770;BME280;6597;52.218;9.882;2022-11-15T01:23:09;100301.09;;;10.03;100.00
43770;BME280;6597;52.218;9.882;2022-11-15T01:25:58;100299.13;;;10.08;100.00
43770;BME280;6597;52.218;9.882;2022-11-15T01:28:44;100289.53;;;10.08;100.00
43770;BME280;6597;52.218;9.882;2022-11-15T01:31:30;100285.16;;;10.07;100.00
43770;BME280;6597;52.218;9.882;2022-11-15T01:34:15;100287.13;;;10.02;100.00
43770;BME280;6597;52.218;9.882;2022-11-15T01:37:00;100279.50;;;9.96;100.00
43770;BME280;6597;52.218;9.882;2022-11-15T01:39:45;100275.06;;;9.98;100.00
43770;BME280;6597;52.218;9.882;2022-11-15T01:42:31;100270.59;;;10.00;100.00
43770;BME280;6597;52.218;9.882;2022-11-15T01:45:17;100270.72;;;9.97;100.00
43770;BME280;6597;52.218;9.882;2022-11-15T01:48:03;100268.19;;;9.95;100.00
43770;BME280;6597;52.218;9.882;2022-11-15T01:50:49;100258.66;;;9.93;100.00
43770;BME280;6597;52.218;9.882;2022-11-15T01:53:36;100263.84;;;9.94;100.00
43770;BME280;6597;52.218;9.882;2022-11-15T01:56:26;100271.66;;;9.96;100.00
43770;BME280;6597;52.218;9.882;2022-11-15T01:59:12;100272.06;;;10.07;100.00
43770;BME280;6597;52.218;9.882;2022-11-15T02:01:59;100263.78;;;10.18;100.00
43770;BME280;6597;52.218;9.882;2022-11-15T02:04:45;100262.00;;;10.18;100.00
43770;BME280;6597;52.218;9.882;2022-11-15T02:07:32;100260.06;;;10.23;100.00
43770;BME280;6597;52.218;9.882;2022-11-15T02:10:21;100267.69;;;10.29;100.00
43770;BME280;6597;52.218;9.882;2022-11-15T02:13:07;100264.84;;;10.34;100.00
43770;BME280;6597;52.218;9.882;2022-11-15T02:15:58;100259.19;;;10.45;100.00
43770;BME280;6597;52.218;9.882;2022-11-15T02:18:52;100243.88;;;10.54;100.00
43770;BME280;6597;52.218;9.882;2022-11-15T02:21:43;100235.94;;;10.56;100.00
43770;BME280;6597;52.218;9.882;2022-11-15T02:24:49;100241.06;;;10.59;100.00
43770;BME280;6597;52.218;9.882;2022-11-15T02:28:16;100242.63;;;10.63;100.00
43770;BME280;6597;52.218;9.882;2022-11-15T02:31:11;100238.38;;;10.60;100.00
43770;BME280;6597;52.218;9.882;2022-11-15T02:34:05;100242.69;;;10.62;100.00
43770;BME280;6597;52.218;9.882;2022-11-15T02:36:58;100224.47;;;10.58;100.00
43770;BME280;6597;52.218;9.882;2022-11-15T02:39:49;100227.81;;;10.62;100.00
43770;BME280;6597;52.218;9.882;2022-11-15T02:42:39;100239.94;;;10.65;100.00
43770;BME280;6597;52.218;9.882;2022-11-15T02:45:48;100230.81;;;10.73;100.00
43770;BME280;6597;52.218;9.882;2022-11-15T02:48:36;100227.22;;;10.76;100.00
43770;BME280;6597;52.218;9.882;2022-11-15T02:51:22;100221.03;;;10.77;100.00
43770;BME280;6597;52.218;9.882;2022-11-15T02:54:12;100222.25;;;10.88;100.00
43770;BME280;6597;52.218;9.882;2022-11-15T02:57:01;100213.97;;;10.98;99.85
43770;BME280;6597;52.218;9.882;2022-11-15T03:00:01;100208.31;;;11.07;99.38
43770;BME280;6597;52.218;9.882;2022-11-15T03:06:18;100214.91;;;11.15;97.95
43770;BME280;6597;52.218;9.882;2022-11-15T03:09:10;100215.63;;;11.19;96.79
43770;BME280;6597;52.218;9.882;2022-11-15T03:12:03;100228.81;;;11.17;96.84
43770;BME280;6597;52.218;9.882;2022-11-15T03:14:57;100231.53;;;11.16;96.70
43770;BME280;6597;52.218;9.882;2022-11-15T03:17:49;100223.78;;;11.13;96.38
43770;BME280;6597;52.218;9.882;2022-11-15T03:20:37;100228.03;;;11.15;96.00
43770;BME280;6597;52.218;9.882;2022-11-15T03:23:25;100223.84;;;11.11;96.33
43770;BME280;6597;52.218;9.882;2022-11-15T03:26:12;100225.50;;;11.14;95.79
43770;BME280;6597;52.218;9.882;2022-11-15T03:29:01;100229.03;;;11.13;95.41
43770;BME280;6597;52.218;9.882;2022-11-15T03:31:51;100226.56;;;11.10;95.69
43770;BME280;6597;52.218;9.882;2022-11-15T03:34:41;100232.34;;;10.98;96.72
43770;BME280;6597;52.218;9.882;2022-11-15T03:37:32;100231.91;;;10.88;96.69
43770;BME280;6597;52.218;9.882;2022-11-15T03:40:25;100239.22;;;10.81;97.31
43770;BME280;6597;52.218;9.882;2022-11-15T03:43:22;100245.91;;;10.68;96.81
43770;BME280;6597;52.218;9.882;2022-11-15T03:46:13;100242.38;;;10.49;97.70
43770;BME280;6597;52.218;9.882;2022-11-15T03:49:04;100255.16;;;10.36;98.61
43770;BME280;6597;52.218;9.882;2022-11-15T03:51:51;100246.41;;;10.15;100.00
43770;BME280;6597;52.218;9.882;2022-11-15T03:54:36;100256.50;;;10.03;100.00
43770;BME280;6597;52.218;9.882;2022-11-15T03:57:23;100248.97;;;9.95;100.00
43770;BME280;6597;52.218;9.882;2022-11-15T04:00:09;100246.53;;;9.90;100.00
43770;BME280;6597;52.218;9.882;2022-11-15T04:02:54;100245.22;;;9.80;100.00
43770;BME280;6597;52.218;9.882;2022-11-15T04:05:40;100246.34;;;9.73;100.00
43770;BME280;6597;52.218;9.882;2022-11-15T04:08:25;100233.16;;;9.75;100.00
43770;BME280;6597;52.218;9.882;2022-11-15T04:11:10;100239.19;;;9.78;100.00
43770;BME280;6597;52.218;9.882;2022-11-15T04:13:56;100237.16;;;9.85;100.00
43770;BME280;6597;52.218;9.882;2022-11-15T04:16:41;100230.34;;;9.81;100.00
43770;BME280;6597;52.218;9.882;2022-11-15T04:19:26;100245.28;;;9.79;100.00
43770;BME280;6597;52.218;9.882;2022-11-15T04:22:29;100236.63;;;9.77;100.00
43770;BME280;6597;52.218;9.882;2022-11-15T04:25:32;100240.75;;;9.82;100.00
43770;BME280;6597;52.218;9.882;2022-11-15T04:28:18;100243.19;;;9.87;100.00
43770;BME280;6597;52.218;9.882;2022-11-15T04:31:04;100243.00;;;9.91;100.00
43770;BME280;6597;52.218;9.882;2022-11-15T04:33:50;100247.25;;;9.94;100.00
43770;BME280;6597;52.218;9.882;2022-11-15T04:36:35;100244.03;;;9.87;100.00
43770;BME280;6597;52.218;9.882;2022-11-15T04:39:38;100239.19;;;9.78;100.00
43770;BME280;6597;52.218;9.882;2022-11-15T04:42:23;100244.88;;;9.66;100.00
43770;BME280;6597;52.218;9.882;2022-11-15T04:45:09;100234.72;;;9.58;100.00
43770;BME280;6597;52.218;9.882;2022-11-15T04:47:56;100234.84;;;9.55;100.00
43770;BME280;6597;52.218;9.882;2022-11-15T04:50:41;100227.09;;;9.52;100.00
43770;BME280;6597;52.218;9.882;2022-11-15T04:53:26;100221.25;;;9.46;100.00
43770;BME280;6597;52.218;9.882;2022-11-15T04:56:12;100235.31;;;9.43;100.00
43770;BME280;6597;52.218;9.882;2022-11-15T04:58:57;100227.53;;;9.40;100.00
43770;BME280;6597;52.218;9.882;2022-11-15T05:01:42;100228.97;;;9.49;100.00
43770;BME280;6597;52.218;9.882;2022-11-15T05:04:29;100226.97;;;9.55;100.00
43770;BME280;6597;52.218;9.882;2022-11-15T05:07:13;100230.31;;;9.59;100.00
43770;BME280;6597;52.218;9.882;2022-11-15T05:09:58;100234.72;;;9.58;100.00
43770;BME280;6597;52.218;9.882;2022-11-15T05:12:44;100232.34;;;9.52;100.00
43770;BME280;6597;52.218;9.882;2022-11-15T05:15:28;100236.78;;;9.50;100.00
43770;BME280;6597;52.218;9.882;2022-11-15T05:18:14;100243.00;;;9.48;100.00
43770;BME280;6597;52.218;9.882;2022-11-15T05:21:04;100232.47;;;9.49;100.00
43770;BME280;6597;52.218;9.882;2022-11-15T05:23:49;100228.69;;;9.56;100.00
43770;BME280;6597;52.218;9.882;2022-11-15T05:26:34;100222.53;;;9.57;100.00
43770;BME280;6597;52.218;9.882;2022-11-15T05:29:20;100230.38;;;9.57;100.00
43770;BME280;6597;52.218;9.882;2022-11-15T05:32:06;100225.88;;;9.61;100.00
43770;BME280;6597;52.218;9.882;2022-11-15T05:34:54;100222.66;;;9.54;100.00
43770;BME280;6597;52.218;9.882;2022-11-15T05:37:41;100232.34;;;9.52;100.00
43770;BME280;6597;52.218;9.882;2022-11-15T05:40:26;100238.38;;;9.54;100.00
43770;BME280;6597;52.218;9.882;2022-11-15T05:43:11;100233.59;;;9.64;100.00
43770;BME280;6597;52.218;9.882;2022-11-15T05:45:58;100236.34;;;9.61;100.00
43770;BME280;6597;52.218;9.882;2022-11-15T05:48:45;100234.84;;;9.55;100.00
43770;BME280;6597;52.218;9.882;2022-11-15T05:51:32;100240.97;;;9.54;100.00
43770;BME280;6597;52.218;9.882;2022-11-15T05:54:20;100235.47;;;9.39;100.00
43770;BME280;6597;52.218;9.882;2022-11-15T05:57:07;100234.25;;;9.25;100.00
43770;BME280;6597;52.218;9.882;2022-11-15T05:59:53;100239.16;;;9.11;100.00
43770;BME280;6597;52.218;9.882;2022-11-15T06:02:39;100243.47;;;8.89;100.00
43770;BME280;6597;52.218;9.882;2022-11-15T06:05:24;100237.22;;;8.68;100.00
43770;BME280;6597;52.218;9.882;2022-11-15T06:08:09;100238.75;;;8.50;100.00
43770;BME280;6597;52.218;9.882;2022-11-15T06:10:56;100231.28;;;8.38;100.00
43770;BME280;6597;52.218;9.882;2022-11-15T06:13:41;100227.22;;;8.29;100.00
43770;BME280;6597;52.218;9.882;2022-11-15T06:16:27;100233.03;;;8.11;100.00
43770;BME280;6597;52.218;9.882;2022-11-15T06:19:12;100236.13;;;7.97;100.00
43770;BME280;6597;52.218;9.882;2022-11-15T06:21:57;100245.97;;;7.89;100.00
43770;BME280;6597;52.218;9.882;2022-11-15T06:24:42;100245.50;;;7.76;100.00
43770;BME280;6597;52.218;9.882;2022-11-15T06:27:29;100260.38;;;7.74;100.00
43770;BME280;6597;52.218;9.882;2022-11-15T06:30:14;100251.72;;;8.00;100.00
43770;BME280;6597;52.218;9.882;2022-11-15T06:33:00;100252.50;;;8.29;100.00
43770;BME280;6597;52.218;9.882;2022-11-15T06:35:46;100248.41;;;8.48;100.00
43770;BME280;6597;52.218;9.882;2022-11-15T06:38:31;100247.13;;;8.60;100.00
43770;BME280;6597;52.218;9.882;2022-11-15T06:41:16;100248.59;;;8.67;100.00
43770;BME280;6597;52.218;9.882;2022-11-15T06:44:03;100250.88;;;8.76;100.00
43770;BME280;6597;52.218;9.882;2022-11-15T06:46:48;100249.97;;;8.77;100.00
43770;BME280;6597;52.218;9.882;2022-11-15T06:49:33;100261.50;;;8.96;100.00
43770;BME280;6597;52.218;9.882;2022-11-15T06:52:18;100250.69;;;9.05;100.00
43770;BME280;6597;52.218;9.882;2022-11-15T06:55:07;100256.56;;;9.12;100.00
43770;BME280;6597;52.218;9.882;2022-11-15T06:57:52;100253.94;;;9.12;100.00
43770;BME280;6597;52.218;9.882;2022-11-15T07:00:39;100262.50;;;9.17;100.00
43770;BME280;6597;52.218;9.882;2022-11-15T07:03:25;100269.19;;;9.24;100.00
43770;BME280;6597;52.218;9.882;2022-11-15T07:06:10;100273.41;;;9.28;100.00
43770;BME280;6597;52.218;9.882;2022-11-15T07:08:55;100277.56;;;9.34;100.00
43770;BME280;6597;52.218;9.882;2022-11-15T07:11:41;100269.47;;;9.40;100.00
43770;BME280;6597;52.218;9.882;2022-11-15T07:14:26;100270.56;;;9.34;100.00
43770;BME280;6597;52.218;9.882;2022-11-15T07:17:12;100268.59;;;9.40;100.00
43770;BME280;6597;52.218;9.882;2022-11-15T07:19:58;100269.41;;;9.42;100.00
43770;BME280;6597;52.218;9.882;2022-11-15T07:22:43;100272.09;;;9.40;100.00
43770;BME280;6597;52.218;9.882;2022-11-15T07:25:30;100277.06;;;9.48;100.00
43770;BME280;6597;52.218;9.882;2022-11-15T07:28:15;100266.94;;;9.60;100.00
43770;BME280;6597;52.218;9.882;2022-11-15T07:31:02;100269.03;;;9.96;100.00
43770;BME280;6597;52.218;9.882;2022-11-15T07:33:48;100274.44;;;10.35;97.97
43770;BME280;6597;52.218;9.882;2022-11-15T07:36:33;100271.91;;;10.74;96.13
43770;BME280;6597;52.218;9.882;2022-11-15T07:39:19;100269.44;;;11.29;93.98
43770;BME280;6597;52.218;9.882;2022-11-15T07:42:04;100279.09;;;11.66;89.22
43770;BME280;6597;52.218;9.882;2022-11-15T07:45:08;100270.00;;;11.92;87.52
43770;BME280;6597;52.218;9.882;2022-11-15T07:47:55;100269.47;;;12.03;86.64
43770;BME280;6597;52.218;9.882;2022-11-15T07:50:42;100266.34;;;12.13;85.22
43770;BME280;6597;52.218;9.882;2022-11-15T07:53:27;100267.75;;;11.84;85.04
43770;BME280;6597;52.218;9.882;2022-11-15T07:56:13;100269.59;;;11.45;86.40
43770;BME280;6597;52.218;9.882;2022-11-15T07:58:58;100268.44;;;11.13;87.41
43770;BME280;6597;52.218;9.882;2022-11-15T08:01:44;100276.34;;;10.93;89.07
43770;BME280;6597;52.218;9.882;2022-11-15T08:04:30;100266.47;;;10.79;90.19
43770;BME280;6597;52.218;9.882;2022-11-15T08:07:16;100264.53;;;10.62;91.05
43770;BME280;6597;52.218;9.882;2022-11-15T08:10:02;100262.97;;;10.38;91.94
43770;BME280;6597;52.218;9.882;2022-11-15T08:12:47;100261.66;;;10.27;93.07
43770;BME280;6597;52.218;9.882;2022-11-15T08:15:33;100261.28;;;10.15;95.06
43770;BME280;6597;52.218;9.882;2022-11-15T08:18:19;100258.25;;;10.46;95.93
43770;BME280;6597;52.218;9.882;2022-11-15T08:21:04;100258.72;;;11.15;94.01
43770;BME280;6597;52.218;9.882;2022-11-15T08:23:51;100260.84;;;11.82;88.72
43770;BME280;6597;52.218;9.882;2022-11-15T08:26:36;100257.44;;;12.51;83.85
43770;BME280;6597;52.218;9.882;2022-11-15T08:29:21;100259.88;;;13.38;80.48
43770;BME280;6597;52.218;9.882;2022-11-15T08:32:07;100259.00;;;14.01;75.68
43770;BME280;6597;52.218;9.882;2022-11-15T08:34:52;100259.06;;;14.75;72.53
43770;BME280;6597;52.218;9.882;2022-11-15T08:37:37;100252.84;;;15.19;70.98
43770;BME280;6597;52.218;9.882;2022-11-15T08:40:24;100253.19;;;15.97;68.04
43770;BME280;6597;52.218;9.882;2022-11-15T08:43:10;100248.06;;;16.60;64.94
43770;BME280;6597;52.218;9.882;2022-11-15T08:45:56;100248.59;;;17.29;62.90
43770;BME280;6597;52.218;9.882;2022-11-15T08:48:41;100242.28;;;17.92;60.66
43770;BME280;6597;52.218;9.882;2022-11-15T08:51:26;100245.34;;;18.22;58.70
43770;BME280;6597;52.218;9.882;2022-11-15T08:54:12;100237.22;;;18.59;57.42
43770;BME280;6597;52.218;9.882;2022-11-15T08:56:58;100224.50;;;18.98;55.79
43770;BME280;6597;52.218;9.882;2022-11-15T08:59:43;100235.69;;;18.68;54.35
43770;BME280;6597;52.218;9.882;2022-11-15T09:02:29;100225.22;;;19.00;55.79
43770;BME280;6597;52.218;9.882;2022-11-15T09:05:14;100232.00;;;19.04;53.91
43770;BME280;6597;52.218;9.882;2022-11-15T09:08:00;100231.00;;;19.49;52.50
43770;BME280;6597;52.218;9.882;2022-11-15T09:10:45;100232.69;;;20.05;52.45
43770;BME280;6597;52.218;9.882;2022-11-15T09:13:32;100235.69;;;20.11;51.65
43770;BME280;6597;52.218;9.882;2022-11-15T09:16:17;100242.13;;;20.09;51.17
43770;BME280;6597;52.218;9.882;2022-11-15T09:19:02;100239.50;;;19.98;52.59
43770;BME280;6597;52.218;9.882;2022-11-15T09:21:48;100250.25;;;20.07;51.85
43770;BME280;6597;52.218;9.882;2022-11-15T09:24:33;100244.00;;;20.29;50.42
43770;BME280;6597;52.218;9.882;2022-11-15T09:27:18;100255.25;;;20.01;50.54
43770;BME280;6597;52.218;9.882;2022-11-15T09:30:06;100242.75;;;20.33;50.00
43770;BME280;6597;52.218;9.882;2022-11-15T09:32:51;100233.22;;;19.99;50.48
43770;BME280;6597;52.218;9.882;2022-11-15T09:35:36;100237.81;;;20.29;49.81
43770;BME280;6597;52.218;9.882;2022-11-15T09:38:21;100227.69;;;20.11;49.33
43770;BME280;6597;52.218;9.882;2022-11-15T09:44:35;100231.19;;;19.80;51.01
43770;BME280;6597;52.218;9.882;2022-11-15T09:50:40;100226.97;;;19.77;50.74
43770;BME280;6597;52.218;9.882;2022-11-15T09:53:11;100228.00;;;20.29;49.38
43770;BME280;6597;52.218;9.882;2022-11-15T09:55:45;100234.97;;;20.09;48.88
43770;BME280;6597;52.218;9.882;2022-11-15T09:58:20;100231.38;;;20.31;49.53
43770;BME280;6597;52.218;9.882;2022-11-15T10:00:51;100233.56;;;20.58;48.60
43770;BME280;6597;52.218;9.882;2022-11-15T10:03:24;100233.97;;;20.22;49.01
43770;BME280;6597;52.218;9.882;2022-11-15T10:05:55;100218.38;;;19.85;50.06
43770;BME280;6597;52.218;9.882;2022-11-15T10:08:31;100224.38;;;19.98;49.70
43770;BME280;6597;52.218;9.882;2022-11-15T10:11:02;100219.81;;;19.78;49.85
43770;BME280;6597;52.218;9.882;2022-11-15T10:13:32;100219.28;;;19.63;50.23
43770;BME280;6597;52.218;9.882;2022-11-15T10:16:04;100217.13;;;19.01;51.74
43770;BME280;6597;52.218;9.882;2022-11-15T10:18:43;100219.66;;;18.45;53.81
43770;BME280;6597;52.218;9.882;2022-11-15T10:21:18;100220.91;;;18.17;55.10
43770;BME280;6597;52.218;9.882;2022-11-15T10:23:45;100215.06;;;18.47;55.02
43770;BME280;6597;52.218;9.882;2022-11-15T10:26:15;100208.78;;;18.94;53.65
43770;BME280;6597;52.218;9.882;2022-11-15T10:28:42;100202.38;;;19.19;52.16
43770;BME280;6597;52.218;9.882;2022-11-15T10:31:22;100200.06;;;19.26;51.99
43770;BME280;6597;52.218;9.882;2022-11-15T10:33:51;100208.88;;;19.38;51.84
43770;BME280;6597;52.218;9.882;2022-11-15T10:36:24;100200.69;;;19.07;52.22
43770;BME280;6597;52.218;9.882;2022-11-15T10:38:57;100206.50;;;18.90;52.39
43770;BME280;6597;52.218;9.882;2022-11-15T10:41:38;100201.22;;;18.55;53.63
43770;BME280;6597;52.218;9.882;2022-11-15T10:44:20;100207.53;;;17.95;56.10
43770;BME280;6597;52.218;9.882;2022-11-15T10:46:48;100195.16;;;17.09;58.72
43770;BME280;6597;52.218;9.882;2022-11-15T10:49:30;100201.22;;;16.61;60.55
43770;BME280;6597;52.218;9.882;2022-11-15T10:52:00;100203.13;;;16.06;63.10
43770;BME280;6597;52.218;9.882;2022-11-15T10:54:30;100190.25;;;15.87;64.64
43770;BME280;6597;52.218;9.882;2022-11-15T10:56:59;100187.28;;;15.79;65.29
43770;BME280;6597;52.218;9.882;2022-11-15T10:59:30;100192.16;;;15.59;66.17
43770;BME280;6597;52.218;9.882;2022-11-15T11:01:59;100187.53;;;15.48;67.44
43770;BME280;6597;52.218;9.882;2022-11-15T11:04:26;100178.50;;;15.38;67.78
43770;BME280;6597;52.218;9.882;2022-11-15T11:06:54;100187.13;;;15.13;68.03
43770;BME280;6597;52.218;9.882;2022-11-15T11:09:33;100181.97;;;14.83;69.61
43770;BME280;6597;52.218;9.882;2022-11-15T11:12:01;100185.81;;;14.63;70.79
43770;BME280;6597;52.218;9.882;2022-11-15T11:14:30;100181.00;;;14.55;71.80
43770;BME280;6597;52.218;9.882;2022-11-15T11:17:02;100174.47;;;14.47;72.16
43770;BME280;6597;52.218;9.882;2022-11-15T11:19:46;100178.69;;;14.35;72.92
43770;BME280;6597;52.218;9.882;2022-11-15T11:22:19;100162.25;;;14.30;72.86
43770;BME280;6597;52.218;9.882;2022-11-15T11:24:55;100162.56;;;14.40;73.58
43770;BME280;6597;52.218;9.882;2022-11-15T11:27:35;100158.63;;;14.47;73.63
43770;BME280;6597;52.218;9.882;2022-11-15T11:30:09;100159.50;;;14.47;73.69
43770;BME280;6597;52.218;9.882;2022-11-15T11:32:49;100160.47;;;14.30;73.98
43770;BME280;6597;52.218;9.882;2022-11-15T11:35:20;100159.22;;;14.22;73.95
43770;BME280;6597;52.218;9.882;2022-11-15T11:37:51;100162.03;;;14.19;74.22
43770;BME280;6597;52.218;9.882;2022-11-15T11:40:29;100155.34;;;14.13;74.12
43770;BME280;6597;52.218;9.882;2022-11-15T11:43:04;100154.63;;;13.95;74.90
43770;BME280;6597;52.218;9.882;2022-11-15T11:45:52;100150.38;;;13.93;75.33
43770;BME280;6597;52.218;9.882;2022-11-15T11:48:33;100150.47;;;13.91;75.70
43770;BME280;6597;52.218;9.882;2022-11-15T11:51:10;100164.59;;;13.90;75.72
43770;BME280;6597;52.218;9.882;2022-11-15T11:53:42;100151.78;;;13.84;76.41
43770;BME280;6597;52.218;9.882;2022-11-15T11:56:18;100153.06;;;13.77;76.88
43770;BME280;6597;52.218;9.882;2022-11-15T11:58:48;100153.25;;;13.74;76.17
43770;BME280;6597;52.218;9.882;2022-11-15T12:01:22;100154.19;;;13.73;76.36
43770;BME280;6597;52.218;9.882;2022-11-15T12:03:53;100152.59;;;13.70;76.39
43770;BME280;6597;52.218;9.882;2022-11-15T12:06:28;100148.25;;;13.69;76.58
43770;BME280;6597;52.218;9.882;2022-11-15T12:09:00;100150.97;;;13.68;76.37
43770;BME280;6597;52.218;9.882;2022-11-15T12:11:32;100136.56;;;13.74;76.47
43770;BME280;6597;52.218;9.882;2022-11-15T12:14:08;100128.94;;;13.69;76.28
43770;BME280;6597;52.218;9.882;2022-11-15T12:16:38;100128.84;;;13.70;76.36
43770;BME280;6597;52.218;9.882;2022-11-15T12:19:07;100121.59;;;13.74;76.48
43770;BME280;6597;52.218;9.882;2022-11-15T12:21:38;100135.72;;;13.73;76.16
43770;BME280;6597;52.218;9.882;2022-11-15T12:24:11;100132.16;;;13.74;76.06
43770;BME280;6597;52.218;9.882;2022-11-15T12:26:42;100125.84;;;13.77;75.93
43770;BME280;6597;52.218;9.882;2022-11-15T12:29:16;100126.38;;;13.67;76.55
43770;BME280;6597;52.218;9.882;2022-11-15T12:31:49;100130.28;;;13.60;77.32
43770;BME280;6597;52.218;9.882;2022-11-15T12:34:35;100119.06;;;13.57;77.24
43770;BME280;6597;52.218;9.882;2022-11-15T12:40:20;100117.00;;;13.62;77.12
43770;BME280;6597;52.218;9.882;2022-11-15T12:43:00;100110.47;;;13.69;77.57
43770;BME280;6597;52.218;9.882;2022-11-15T12:45:30;100116.41;;;13.73;76.63
43770;BME280;6597;52.218;9.882;2022-11-15T12:51:15;100100.03;;;13.82;76.89
43770;BME280;6597;52.218;9.882;2022-11-15T12:53:42;100096.84;;;13.91;77.08
43770;BME280;6597;52.218;9.882;2022-11-15T12:56:23;100100.81;;;13.98;76.87
43770;BME280;6597;52.218;9.882;2022-11-15T12:58:56;100089.06;;;14.04;76.33
43770;BME280;6597;52.218;9.882;2022-11-15T13:01:53;100080.97;;;14.07;76.26
43770;BME280;6597;52.218;9.882;2022-11-15T13:04:24;100080.22;;;14.05;75.65
43770;BME280;6597;52.218;9.882;2022-11-15T13:06:52;100081.44;;;14.13;75.92
43770;BME280;6597;52.218;9.882;2022-11-15T13:09:54;100080.78;;;14.24;75.26
43770;BME280;6597;52.218;9.882;2022-11-15T13:12:53;100070.78;;;14.29;74.81
43770;BME280;6597;52.218;9.882;2022-11-15T13:15:46;100076.28;;;14.40;74.26
43770;BME280;6597;52.218;9.882;2022-11-15T13:18:34;100063.00;;;14.56;73.89
43770;BME280;6597;52.218;9.882;2022-11-15T13:21:03;100064.59;;;14.58;73.38
43770;BME280;6597;52.218;9.882;2022-11-15T13:23:53;100057.81;;;14.69;72.87
43770;BME280;6597;52.218;9.882;2022-11-15T13:26:20;100060.44;;;14.69;72.97
43770;BME280;6597;52.218;9.882;2022-11-15T13:28:49;100055.81;;;14.72;72.77
43770;BME280;6597;52.218;9.882;2022-11-15T13:31:28;100052.78;;;14.78;73.27
43770;BME280;6597;52.218;9.882;2022-11-15T13:33:57;100047.00;;;14.86;72.46
43770;BME280;6597;52.218;9.882;2022-11-15T13:36:27;100049.84;;;14.83;72.19
43770;BME280;6597;52.218;9.882;2022-11-15T13:38:59;100045.31;;;14.85;72.02
43770;BME280;6597;52.218;9.882;2022-11-15T13:41:28;100039.38;;;14.81;72.04
43770;BME280;6597;52.218;9.882;2022-11-15T13:43:56;100041.38;;;14.78;72.33
43770;BME280;6597;52.218;9.882;2022-11-15T13:46:24;100042.66;;;14.85;72.56
43770;BME280;6597;52.218;9.882;2022-11-15T13:48:54;100040.00;;;14.85;71.82
43770;BME280;6597;52.218;9.882;2022-11-15T13:51:27;100043.59;;;14.84;72.30
43770;BME280;6597;52.218;9.882;2022-11-15T13:53:58;100031.25;;;14.84;72.56
43770;BME280;6597;52.218;9.882;2022-11-15T13:56:27;100032.84;;;14.87;71.77
43770;BME280;6597;52.218;9.882;2022-11-15T13:58:55;100030.09;;;14.88;71.97
43770;BME280;6597;52.218;9.882;2022-11-15T14:01:22;100023.22;;;14.86;72.45
43770;BME280;6597;52.218;9.882;2022-11-15T14:03:57;100023.31;;;14.84;72.36
43770;BME280;6597;52.218;9.882;2022-11-15T14:06:25;100017.19;;;14.84;72.41
43770;BME280;6597;52.218;9.882;2022-11-15T14:09:03;100010.59;;;14.77;72.40
43770;BME280;6597;52.218;9.882;2022-11-15T14:11:30;100017.78;;;14.75;72.42
43770;BME280;6597;52.218;9.882;2022-11-15T14:14:10;100013.25;;;14.77;72.69
43770;BME280;6597;52.218;9.882;2022-11-15T14:16:39;100016.00;;;14.75;72.72
43770;BME280;6597;52.218;9.882;2022-11-15T14:19:10;100015.13;;;14.75;72.42
43770;BME280;6597;52.218;9.882;2022-11-15T14:21:37;100009.59;;;14.65;72.59
43770;BME280;6597;52.218;9.882;2022-11-15T14:24:16;100008.56;;;14.53;73.68
43770;BME280;6597;52.218;9.882;2022-11-15T14:26:44;100015.66;;;14.53;73.57
43770;BME280;6597;52.218;9.882;2022-11-15T14:29:24;100016.03;;;14.47;74.18
43770;BME280;6597;52.218;9.882;2022-11-15T14:31:51;100008.97;;;14.33;74.23
43770;BME280;6597;52.218;9.882;2022-11-15T14:34:19;100005.06;;;14.24;74.26
43770;BME280;6597;52.218;9.882;2022-11-15T14:36:47;100001.28;;;14.28;74.95